createdAt,value
2018-12-16T00:02:28.748Z,41.10
2018-12-16T00:04:57.808Z,42.87
2018-12-16T00:07:26.896Z,45.20
2018-12-16T00:09:55.966Z,55.33
2018-12-16T00:12:25.043Z,59.60
2018-12-16T00:14:54.235Z,64.43
2018-12-16T00:17:23.299Z,63.97
2018-12-16T00:19:52.367Z,65.00
2018-12-16T00:22:21.465Z,79.33
2018-12-16T00:24:50.528Z,62.67
2018-12-16T00:27:19.594Z,62.47
2018-12-16T00:29:48.680Z,63.47
2018-12-16T00:32:17.762Z,70.67
2018-12-16T00:34:46.822Z,60.07
2018-12-16T00:37:15.930Z,56.43
2018-12-16T00:39:44.992Z,65.60
2018-12-16T00:42:14.070Z,62.67
2018-12-16T00:44:43.171Z,64.10
2018-12-16T00:47:12.232Z,46.37
2018-12-16T00:49:41.433Z,50.43
2018-12-16T00:52:10.532Z,56.57
2018-12-16T00:54:39.603Z,55.73
2018-12-16T00:57:08.687Z,56.70
2018-12-16T00:59:37.842Z,61.97
2018-12-16T01:02:06.913Z,56.77
2018-12-16T01:04:35.978Z,58.37
2018-12-16T01:07:05.164Z,54.37
2018-12-16T01:09:34.287Z,49.97
2018-12-16T01:12:03.286Z,45.63
2018-12-16T01:14:32.375Z,43.57
2018-12-16T01:17:01.446Z,42.73
2018-12-16T01:19:30.519Z,40.53
2018-12-16T01:21:59.645Z,40.40
2018-12-16T01:24:28.712Z,35.13
2018-12-16T01:27:17.970Z,37.47
2018-12-16T01:29:47.033Z,38.70
2018-12-16T01:32:16.096Z,45.87
2018-12-16T01:34:45.193Z,45.43
2018-12-16T01:37:14.259Z,41.87
2018-12-16T01:39:43.312Z,43.33
2018-12-16T01:42:12.760Z,46.27
2018-12-16T01:44:41.836Z,50.40
2018-12-16T01:47:10.906Z,47.73
2018-12-16T01:49:39.996Z,45.70
2018-12-16T01:52:09.057Z,53.87
2018-12-16T01:54:38.124Z,57.23
2018-12-16T01:57:07.216Z,59.87
2018-12-16T01:59:36.281Z,55.07
2018-12-16T02:02:05.346Z,49.80
2018-12-16T02:04:34.439Z,51.90
2018-12-16T02:07:03.514Z,45.40
2018-12-16T02:09:32.584Z,43.90
2018-12-16T02:12:01.808Z,44.13
2018-12-16T02:14:30.878Z,42.07
2018-12-16T02:16:59.948Z,42.07
2018-12-16T02:19:29.030Z,42.70
2018-12-16T02:21:58.299Z,40.87
2018-12-16T02:24:27.360Z,38.33
2018-12-16T02:26:56.474Z,32.60
2018-12-16T02:29:25.550Z,31.10
2018-12-16T02:31:54.613Z,28.73
2018-12-16T02:34:23.975Z,30.83
2018-12-16T02:36:53.037Z,28.37
2018-12-16T02:39:22.108Z,26.73
2018-12-16T02:41:51.187Z,26.00
2018-12-16T02:44:20.262Z,23.30
2018-12-16T02:46:49.319Z,22.93
2018-12-16T02:49:18.554Z,21.80
2018-12-16T02:51:47.603Z,19.60
2018-12-16T02:54:16.666Z,20.60
2018-12-16T02:56:45.752Z,18.60
2018-12-16T02:59:14.821Z,19.17
2018-12-16T03:01:43.876Z,19.67
2018-12-16T03:04:13.050Z,18.60
2018-12-16T03:06:42.113Z,18.47
2018-12-16T03:09:11.164Z,17.87
2018-12-16T03:11:40.288Z,19.13
2018-12-16T03:14:09.356Z,18.40
2018-12-16T03:16:38.410Z,19.50
2018-12-16T03:19:07.486Z,18.73
2018-12-16T03:21:36.559Z,18.70
2018-12-16T03:24:05.610Z,19.70
2018-12-16T03:26:36.008Z,18.10
2018-12-16T03:29:03.768Z,17.90
2018-12-16T03:31:32.841Z,18.23
2018-12-16T03:34:01.942Z,18.63
2018-12-16T03:36:31.006Z,17.97
2018-12-16T03:39:00.079Z,17.00
2018-12-16T03:41:29.184Z,18.20
2018-12-16T03:43:58.255Z,18.27
2018-12-16T03:46:30.743Z,18.43
2018-12-16T03:48:59.821Z,18.57
2018-12-16T03:51:28.893Z,19.47
2018-12-16T03:53:58.070Z,18.60
2018-12-16T03:56:27.198Z,18.23
2018-12-16T03:59:10.560Z,19.70
2018-12-16T04:01:39.614Z,19.27
2018-12-16T04:04:08.678Z,19.27
2018-12-16T04:06:37.921Z,20.13
2018-12-16T04:09:06.982Z,19.40
2018-12-16T04:11:36.044Z,19.13
2018-12-16T04:14:05.362Z,20.57
2018-12-16T04:16:34.433Z,20.87
2018-12-16T04:19:03.499Z,19.73
2018-12-16T04:21:32.589Z,21.13
2018-12-16T04:24:01.657Z,20.20
2018-12-16T04:26:47.741Z,18.77
2018-12-16T04:29:16.752Z,19.90
2018-12-16T04:31:45.809Z,19.23
2018-12-16T04:34:14.903Z,18.17
2018-12-16T04:36:43.966Z,19.30
2018-12-16T04:39:13.034Z,20.30
2018-12-16T04:41:42.116Z,18.53
2018-12-16T04:44:11.180Z,18.80
2018-12-16T04:46:40.248Z,19.07
2018-12-16T04:49:09.334Z,19.30
2018-12-16T04:51:38.394Z,18.17
2018-12-16T04:54:07.467Z,18.47
2018-12-16T04:56:36.660Z,20.00
2018-12-16T04:59:05.725Z,20.70
2018-12-16T05:01:34.784Z,21.97
2018-12-16T05:04:03.865Z,20.47
2018-12-16T05:06:32.919Z,21.33
2018-12-16T05:09:01.975Z,21.97
2018-12-16T05:11:31.072Z,21.23
2018-12-16T05:14:00.162Z,19.93
2018-12-16T05:16:45.606Z,20.17
2018-12-16T05:19:14.670Z,20.10
2018-12-16T05:21:43.737Z,22.23
2018-12-16T05:24:12.823Z,21.13
2018-12-16T05:26:41.899Z,22.67
2018-12-16T05:29:10.954Z,20.53
2018-12-16T05:31:40.033Z,19.33
2018-12-16T05:34:09.086Z,21.83
2018-12-16T05:36:47.897Z,20.17
2018-12-16T05:39:16.978Z,20.47
2018-12-16T05:41:46.042Z,21.43
2018-12-16T05:44:15.129Z,20.83
2018-12-16T05:46:44.176Z,22.07
2018-12-16T05:49:13.222Z,21.80
2018-12-16T05:51:42.306Z,23.77
2018-12-16T05:54:11.365Z,18.77
2018-12-16T05:56:40.421Z,20.57
2018-12-16T05:59:09.535Z,22.90
2018-12-16T06:01:38.603Z,21.40
2018-12-16T06:04:07.658Z,24.77
2018-12-16T06:06:36.746Z,22.53
2018-12-16T06:09:05.847Z,20.80
2018-12-16T06:11:34.913Z,22.73
2018-12-16T06:14:04.304Z,19.50
2018-12-16T06:16:47.104Z,20.10
2018-12-16T06:19:16.206Z,20.30
2018-12-16T06:21:45.268Z,18.13
2018-12-16T06:24:14.327Z,21.27
2018-12-16T06:26:43.419Z,22.10
2018-12-16T06:29:12.478Z,20.13
2018-12-16T06:31:41.536Z,22.97
2018-12-16T06:34:10.631Z,20.87
2018-12-16T06:36:39.679Z,18.63
2018-12-16T06:39:08.731Z,14.30
2018-12-16T06:41:37.837Z,22.77
2018-12-16T06:44:06.883Z,29.00
2018-12-16T06:46:35.957Z,18.00
2018-12-16T06:49:05.040Z,21.43
2018-12-16T06:51:34.100Z,19.80
2018-12-16T06:54:03.162Z,20.03
2018-12-16T06:56:32.245Z,23.20
2018-12-16T06:59:01.303Z,25.70
2018-12-16T07:01:30.371Z,61.63
2018-12-16T07:03:59.484Z,30.90
2018-12-16T07:06:30.587Z,38.03
2018-12-16T07:08:59.649Z,39.43
2018-12-16T07:11:28.754Z,41.40
2018-12-16T07:13:57.821Z,29.00
2018-12-16T07:16:26.876Z,50.20
2018-12-16T07:18:55.972Z,36.17
2018-12-16T07:21:25.056Z,34.10
2018-12-16T07:23:54.143Z,36.37
2018-12-16T07:26:24.221Z,32.33
2018-12-16T07:28:53.293Z,31.17
2018-12-16T07:31:22.323Z,21.90
2018-12-16T07:33:51.408Z,28.53
2018-12-16T07:36:20.479Z,19.83
2018-12-16T07:38:49.531Z,16.10
2018-12-16T07:41:18.625Z,18.80
2018-12-16T07:43:47.680Z,18.10
2018-12-16T07:46:16.756Z,27.83
2018-12-16T07:48:45.866Z,29.67
2018-12-16T07:51:14.922Z,20.90
2018-12-16T07:53:44.022Z,30.17
2018-12-16T07:56:13.075Z,32.93
2018-12-16T07:58:42.135Z,23.13
2018-12-16T08:01:11.214Z,24.87
2018-12-16T08:03:40.285Z,19.13
2018-12-16T08:06:09.374Z,23.67
2018-12-16T08:08:38.405Z,20.03
2018-12-16T08:11:07.537Z,18.50
2018-12-16T08:13:36.599Z,18.30
2018-12-16T08:16:05.660Z,18.43
2018-12-16T08:18:34.744Z,16.43
2018-12-16T08:21:03.800Z,22.17
2018-12-16T08:23:32.850Z,22.83
2018-12-16T08:26:02.000Z,15.07
2018-12-16T08:28:30.985Z,20.60
2018-12-16T08:31:00.054Z,23.47
2018-12-16T08:33:29.498Z,21.87
2018-12-16T08:35:58.556Z,12.87
2018-12-16T08:38:27.617Z,16.23
2018-12-16T08:40:56.705Z,17.90
2018-12-16T08:43:25.765Z,14.93
2018-12-16T08:45:54.823Z,25.97
2018-12-16T08:48:23.903Z,19.73
2018-12-16T08:50:52.952Z,23.33
2018-12-16T08:53:22.014Z,29.23
2018-12-16T08:55:51.242Z,23.90
2018-12-16T08:58:20.302Z,24.40
2018-12-16T09:00:49.382Z,28.30
2018-12-16T09:03:18.488Z,22.07
2018-12-16T09:05:47.566Z,24.07
2018-12-16T09:08:16.624Z,18.30
2018-12-16T09:10:45.713Z,28.17
2018-12-16T09:13:14.788Z,25.63
2018-12-16T09:15:43.849Z,25.43
2018-12-16T09:18:12.957Z,25.87
2018-12-16T09:20:42.007Z,20.20
2018-12-16T09:23:11.070Z,31.63
2018-12-16T09:25:40.157Z,21.70
2018-12-16T09:28:09.214Z,24.03
2018-12-16T09:30:38.381Z,20.20
2018-12-16T09:33:07.470Z,17.80
2018-12-16T09:35:36.532Z,18.53
2018-12-16T09:38:05.594Z,20.10
2018-12-16T09:40:34.753Z,23.20
2018-12-16T09:43:03.809Z,18.83
2018-12-16T09:45:32.882Z,20.23
2018-12-16T09:48:01.959Z,17.97
2018-12-16T09:50:31.011Z,20.90
2018-12-16T09:53:00.074Z,25.90
2018-12-16T09:55:29.168Z,38.00
2018-12-16T09:57:58.235Z,34.03
2018-12-16T10:00:27.298Z,30.83
2018-12-16T10:02:56.404Z,31.50
2018-12-16T10:05:25.466Z,26.10
2018-12-16T10:07:54.524Z,26.30
2018-12-16T10:10:23.620Z,21.70
2018-12-16T10:12:52.688Z,23.03
2018-12-16T10:15:21.749Z,21.43
2018-12-16T10:17:51.055Z,22.37
2018-12-16T10:20:20.099Z,17.87
2018-12-16T10:22:49.169Z,17.67
2018-12-16T10:25:18.290Z,18.57
2018-12-16T10:27:47.357Z,18.97
2018-12-16T10:30:16.403Z,18.17
2018-12-16T10:32:45.549Z,16.53
2018-12-16T10:35:14.547Z,18.47
2018-12-16T10:37:43.602Z,19.27
2018-12-16T10:40:12.680Z,19.27
2018-12-16T10:42:41.746Z,21.17
2018-12-16T10:45:10.799Z,21.70
2018-12-16T10:47:39.952Z,20.53
2018-12-16T10:50:09.108Z,22.73
2018-12-16T10:52:38.165Z,16.73
2018-12-16T10:55:07.246Z,23.73
2018-12-16T10:57:36.314Z,22.33
2018-12-16T11:00:05.368Z,22.73
2018-12-16T11:02:34.455Z,20.37
2018-12-16T11:05:03.504Z,22.33
2018-12-16T11:07:32.574Z,20.60
2018-12-16T11:10:01.693Z,21.70
2018-12-16T11:12:30.740Z,21.33
2018-12-16T11:14:59.805Z,20.33
2018-12-16T11:17:28.892Z,28.20
2018-12-16T11:19:57.967Z,31.80
2018-12-16T11:22:27.023Z,28.60
2018-12-16T11:24:56.115Z,42.10
2018-12-16T11:27:25.183Z,39.10
2018-12-16T11:29:54.231Z,30.57
2018-12-16T11:32:23.353Z,29.27
2018-12-16T11:34:52.405Z,49.10
2018-12-16T11:37:21.474Z,23.40
2018-12-16T11:39:50.559Z,29.83
2018-12-16T11:42:19.617Z,28.13
2018-12-16T11:44:48.759Z,24.83
2018-12-16T11:47:17.856Z,20.80
2018-12-16T11:49:46.925Z,24.87
2018-12-16T11:52:16.006Z,19.93
2018-12-16T11:54:45.119Z,23.23
2018-12-16T11:57:14.187Z,19.60
2018-12-16T11:59:43.242Z,31.97
2018-12-16T12:02:12.324Z,31.43
2018-12-16T12:04:41.382Z,24.53
2018-12-16T12:07:10.440Z,29.27
2018-12-16T12:09:39.527Z,21.30
2018-12-16T12:12:08.590Z,23.57
2018-12-16T12:14:37.842Z,25.47
2018-12-16T12:17:07.062Z,23.20
2018-12-16T12:19:36.120Z,27.50
2018-12-16T12:22:05.239Z,30.17
2018-12-16T12:24:34.412Z,22.43
2018-12-16T12:27:03.514Z,33.80
2018-12-16T12:29:32.567Z,31.83
2018-12-16T12:32:01.653Z,33.77
2018-12-16T12:34:30.704Z,31.90
2018-12-16T12:36:59.772Z,22.23
2018-12-16T12:39:28.908Z,28.40
2018-12-16T12:41:57.976Z,22.90
2018-12-16T12:44:27.029Z,25.60
2018-12-16T12:46:57.149Z,26.57
2018-12-16T12:49:26.207Z,20.90
2018-12-16T12:51:55.269Z,22.70
2018-12-16T12:54:24.346Z,20.77
2018-12-16T12:56:53.406Z,23.47
2018-12-16T12:59:22.467Z,29.53
2018-12-16T13:01:51.690Z,27.60
2018-12-16T13:04:20.752Z,22.53
2018-12-16T13:06:49.815Z,25.23
2018-12-16T13:09:18.924Z,23.07
2018-12-16T13:11:47.990Z,24.53
2018-12-16T13:14:17.048Z,20.97
2018-12-16T13:19:41.754Z,19.20
2018-12-16T13:22:10.852Z,15.63
2018-12-16T13:24:39.899Z,37.73
2018-12-16T13:27:08.956Z,31.97
2018-12-16T13:29:38.061Z,23.07
2018-12-16T13:32:07.110Z,26.07
2018-12-16T13:34:36.168Z,21.13
2018-12-16T13:37:05.289Z,19.43
2018-12-16T13:39:34.346Z,24.27
2018-12-16T13:42:03.410Z,19.10
2018-12-16T13:44:32.494Z,20.27
2018-12-16T13:47:11.731Z,20.37
2018-12-16T13:49:40.821Z,17.03
2018-12-16T13:52:09.867Z,16.43
2018-12-16T13:54:38.929Z,17.00
2018-12-16T13:57:08.039Z,18.10
2018-12-16T13:59:37.113Z,17.83
2018-12-16T14:02:06.182Z,17.93
2018-12-16T14:04:35.274Z,16.57
2018-12-16T14:07:04.334Z,18.50
2018-12-16T14:09:33.412Z,20.93
2018-12-16T14:12:02.539Z,21.07
2018-12-16T14:14:31.559Z,19.40
2018-12-16T14:17:00.623Z,19.47
2018-12-16T14:19:29.725Z,20.07
2018-12-16T14:21:58.782Z,17.50
2018-12-16T14:24:27.839Z,20.80
2018-12-16T14:26:56.922Z,19.20
2018-12-16T14:29:25.984Z,18.27
2018-12-16T14:31:55.060Z,17.63
2018-12-16T14:34:24.148Z,19.50
2018-12-16T14:36:53.213Z,19.17
2018-12-16T14:39:22.273Z,20.60
2018-12-16T14:41:51.369Z,23.57
2018-12-16T14:44:20.435Z,23.10
2018-12-16T14:46:49.491Z,25.17
2018-12-16T14:49:18.573Z,23.67
2018-12-16T14:51:47.630Z,21.30
2018-12-16T14:54:16.692Z,26.60
2018-12-16T14:56:45.790Z,27.97
2018-12-16T14:59:14.854Z,25.73
2018-12-16T15:01:43.913Z,32.13
2018-12-16T15:04:13.211Z,27.67
2018-12-16T15:06:42.277Z,35.33
2018-12-16T15:09:11.340Z,25.50
2018-12-16T15:11:40.459Z,26.70
2018-12-16T15:14:09.517Z,26.57
2018-12-16T15:16:55.227Z,39.50
2018-12-16T15:19:24.287Z,40.07
2018-12-16T15:21:53.348Z,42.80
2018-12-16T15:24:22.535Z,42.73
2018-12-16T15:26:54.545Z,48.90
2018-12-16T15:29:23.627Z,40.90
2018-12-16T15:31:56.555Z,53.10
2018-12-16T15:34:28.527Z,50.90
2018-12-16T15:36:57.723Z,50.73
2018-12-16T15:39:26.795Z,87.67
2018-12-16T15:41:55.923Z,97.93
2018-12-16T15:44:25.005Z,92.43
2018-12-16T15:46:54.249Z,109.57
2018-12-16T15:49:23.351Z,79.27
2018-12-16T15:51:52.418Z,52.90
2018-12-16T15:54:21.494Z,59.23
2018-12-16T15:56:55.311Z,51.83
2018-12-16T15:59:24.365Z,48.07
2018-12-16T16:01:53.441Z,42.93
2018-12-16T16:04:22.774Z,41.87
2018-12-16T16:06:51.824Z,38.13
2018-12-16T16:09:20.902Z,62.90
2018-12-16T16:11:50.010Z,58.67
2018-12-16T16:14:19.084Z,75.97
2018-12-16T16:16:48.209Z,55.37
2018-12-16T16:19:17.299Z,44.93
2018-12-16T16:21:46.364Z,39.93
2018-12-16T16:24:15.417Z,41.73
2018-12-16T16:26:44.558Z,42.80
2018-12-16T16:29:13.623Z,71.17
2018-12-16T16:31:42.684Z,58.80
2018-12-16T16:34:11.781Z,58.63
2018-12-16T16:36:40.857Z,46.10
2018-12-16T16:39:09.935Z,70.70
2018-12-16T16:41:39.036Z,55.00
2018-12-16T16:44:08.162Z,44.43
2018-12-16T16:46:37.168Z,42.43
2018-12-16T16:49:06.433Z,44.47
2018-12-16T16:51:35.503Z,46.50
2018-12-16T16:54:04.589Z,40.13
2018-12-16T16:56:37.389Z,37.37
2018-12-16T16:59:06.459Z,38.27
2018-12-16T17:01:35.520Z,32.53
2018-12-16T17:04:04.617Z,35.00
2018-12-16T17:06:33.997Z,31.70
2018-12-16T17:09:02.743Z,42.47
2018-12-16T17:11:31.862Z,46.33
2018-12-16T17:14:00.937Z,43.80
2018-12-16T17:16:30.985Z,42.77
2018-12-16T17:19:00.063Z,40.20
2018-12-16T17:21:29.126Z,39.50
2018-12-16T17:23:58.192Z,41.10
2018-12-16T17:26:30.094Z,41.50
2018-12-16T17:28:56.338Z,42.37
2018-12-16T17:31:25.403Z,42.73
2018-12-16T17:33:54.537Z,105.07
2018-12-16T17:36:27.404Z,86.03
2018-12-16T17:38:56.489Z,54.07
2018-12-16T17:41:25.553Z,43.27
2018-12-16T17:43:54.625Z,34.47
2018-12-16T17:46:23.717Z,29.40
2018-12-16T17:48:52.854Z,29.07
2018-12-16T17:51:21.920Z,26.33
2018-12-16T17:53:51.032Z,26.80
2018-12-16T17:56:25.185Z,28.63
2018-12-16T17:58:54.503Z,34.30
2018-12-16T18:01:23.557Z,50.97
2018-12-16T18:03:52.622Z,57.73
2018-12-16T18:06:21.717Z,35.00
2018-12-16T18:08:50.779Z,45.47
2018-12-16T18:11:19.844Z,38.33
2018-12-16T18:13:48.951Z,33.00
2018-12-16T18:16:25.912Z,33.70
2018-12-16T18:18:54.983Z,33.83
2018-12-16T18:21:24.050Z,33.33
2018-12-16T18:23:53.103Z,36.43
2018-12-16T18:26:22.200Z,35.77
2018-12-16T18:28:51.256Z,38.50
2018-12-16T18:31:20.318Z,38.80
2018-12-16T18:33:49.419Z,37.70
2018-12-16T18:36:18.506Z,39.60
2018-12-16T18:38:47.536Z,34.70
2018-12-16T18:41:16.629Z,29.83
2018-12-16T18:43:45.695Z,32.17
2018-12-16T18:46:14.765Z,34.80
2018-12-16T18:48:43.857Z,37.67
2018-12-16T18:51:12.917Z,34.63
2018-12-16T18:53:41.991Z,80.17
2018-12-16T18:56:11.209Z,43.97
2018-12-16T18:58:40.269Z,34.30
2018-12-16T19:01:09.324Z,34.27
2018-12-16T19:03:38.499Z,27.27
2018-12-16T19:06:07.566Z,29.70
2018-12-16T19:08:36.626Z,32.43
2018-12-16T19:11:05.794Z,36.13
2018-12-16T19:13:34.850Z,42.07
2018-12-16T19:16:03.915Z,36.40
2018-12-16T19:18:33.016Z,45.03
2018-12-16T19:21:02.071Z,39.87
2018-12-16T19:23:31.123Z,46.73
2018-12-16T19:26:00.250Z,49.40
2018-12-16T19:28:29.342Z,42.43
2018-12-16T19:30:58.402Z,45.27
2018-12-16T19:33:27.485Z,49.80
2018-12-16T19:35:56.561Z,54.80
2018-12-16T19:38:25.642Z,59.23
2018-12-16T19:40:54.747Z,60.70
2018-12-16T19:43:23.803Z,55.67
2018-12-16T19:45:52.865Z,55.33
2018-12-16T19:48:22.195Z,49.43
2018-12-16T19:50:51.254Z,52.37
2018-12-16T19:53:20.316Z,49.17
2018-12-16T19:55:50.043Z,47.87
2018-12-16T19:58:19.115Z,74.67
2018-12-16T20:00:48.211Z,88.37
2018-12-16T20:03:17.355Z,38.17
2018-12-16T20:05:51.856Z,41.13
2018-12-16T20:08:21.015Z,43.53
2018-12-16T20:10:50.052Z,50.97
2018-12-16T20:13:19.164Z,50.40
2018-12-16T20:15:48.274Z,68.33
2018-12-16T20:18:17.348Z,62.13
2018-12-16T20:20:46.412Z,56.00
2018-12-16T20:23:15.558Z,59.23
2018-12-16T20:25:44.629Z,55.03
2018-12-16T20:28:13.700Z,53.43
2018-12-16T20:30:42.805Z,58.67
2018-12-16T20:33:16.013Z,57.93
2018-12-16T20:35:45.256Z,79.60
2018-12-16T20:38:14.317Z,77.20
2018-12-16T20:40:43.407Z,44.30
2018-12-16T20:43:16.152Z,43.50
2018-12-16T20:45:45.501Z,39.27
2018-12-16T20:48:14.607Z,41.57
2018-12-16T20:50:44.217Z,42.00
2018-12-16T20:53:13.275Z,50.53
2018-12-16T20:55:42.610Z,60.03
2018-12-16T20:58:11.627Z,42.23
2018-12-16T21:00:40.678Z,33.23
2018-12-16T21:03:09.749Z,32.77
2018-12-16T21:05:38.858Z,33.07
2018-12-16T21:08:07.926Z,34.90
2018-12-16T21:10:36.980Z,32.13
2018-12-16T21:13:11.653Z,33.03
2018-12-16T21:15:46.352Z,33.93
2018-12-16T21:18:20.922Z,36.83
2018-12-16T21:20:49.967Z,44.77
2018-12-16T21:23:19.022Z,36.67
2018-12-16T21:25:48.115Z,37.60
2018-12-16T21:28:17.183Z,34.00
2018-12-16T21:30:46.241Z,35.97
2018-12-16T21:33:15.330Z,40.40
2018-12-16T21:35:44.444Z,40.13
2018-12-16T21:38:13.508Z,46.53
2018-12-16T21:40:42.592Z,59.37
2018-12-16T21:43:11.650Z,60.23
2018-12-16T21:45:40.722Z,67.77
2018-12-16T21:48:09.953Z,44.17
2018-12-16T21:50:39.001Z,45.50
2018-12-16T21:53:08.053Z,38.33
2018-12-16T21:55:37.263Z,32.97
2018-12-16T21:58:06.364Z,33.40
2018-12-16T22:00:35.451Z,36.47
2018-12-16T22:03:04.524Z,40.73
2018-12-16T22:05:33.580Z,39.47
2018-12-16T22:08:02.621Z,43.03
2018-12-16T22:10:32.340Z,55.80
2018-12-16T22:13:01.416Z,56.10
2018-12-16T22:15:30.496Z,63.93
2018-12-16T22:17:59.656Z,40.90
2018-12-16T22:20:28.726Z,55.40
2018-12-16T22:22:57.779Z,45.60
2018-12-16T22:25:26.874Z,51.17
2018-12-16T22:27:55.944Z,49.37
2018-12-16T22:30:25.007Z,50.73
2018-12-16T22:32:54.114Z,47.03
2018-12-16T22:35:23.183Z,61.13
2018-12-16T22:37:52.250Z,69.03
2018-12-16T22:40:21.354Z,70.60
2018-12-16T22:42:50.418Z,50.03
2018-12-16T22:45:19.479Z,64.30
2018-12-16T22:47:48.573Z,67.13
2018-12-16T22:50:17.636Z,55.17
2018-12-16T22:52:46.693Z,49.23
2018-12-16T22:55:15.785Z,45.53
2018-12-16T22:57:47.187Z,43.90
2018-12-16T23:00:13.899Z,47.70
2018-12-16T23:02:43.071Z,47.33
2018-12-16T23:05:12.059Z,45.80
2018-12-16T23:07:41.121Z,36.70
2018-12-16T23:10:10.206Z,42.50
2018-12-16T23:12:39.252Z,39.57
2018-12-16T23:15:08.312Z,41.93
2018-12-16T23:17:37.514Z,35.90
2018-12-16T23:20:12.206Z,35.20
2018-12-16T23:22:41.282Z,33.67
2018-12-16T23:25:10.332Z,37.50
2018-12-16T23:27:39.382Z,35.10
2018-12-16T23:30:08.468Z,32.47
2018-12-16T23:32:37.525Z,36.17
2018-12-16T23:35:06.593Z,39.17
2018-12-16T23:37:35.708Z,42.87
2018-12-16T23:40:04.759Z,46.43
2018-12-16T23:42:33.822Z,47.40
2018-12-16T23:45:02.904Z,40.53
2018-12-16T23:47:31.968Z,45.47
2018-12-16T23:50:01.028Z,38.70
2018-12-16T23:52:30.117Z,33.83
2018-12-16T23:54:59.185Z,37.93
2018-12-16T23:57:28.240Z,48.97
2018-12-16T23:59:57.346Z,45.87
